Time;durP1;ratioP1;P1;durP2;ratioP2;P2;SDS_P1;SDS_P2;PMS_P1;PMS_P2;Temp;Humidity;BMP_temperature;BMP_pressure;BME280_temperature;BME280_humidity;BME280_pressure;Samples;Min_cycle;Max_cycle;Signal;HPM_P1;HPM_P2
2022/01/24 00:01:33;;;;;;;8.30;5.63;;;4.70;57.50;;;;;;5035284;28;20400;-74
2022/01/24 00:04:01;;;;;;;7.60;5.63;;;4.60;58.70;;;;;;5035716;28;20454;-72
2022/01/24 00:06:27;;;;;;;8.35;5.60;;;4.60;58.70;;;;;;5046283;28;20405;-73
2022/01/24 00:08:53;;;;;;;6.90;5.60;;;4.70;59.00;;;;;;5055291;28;20400;-72
2022/01/24 00:11:24;;;;;;;8.50;5.55;;;4.80;58.30;;;;;;5067250;28;20393;-73
2022/01/24 00:26:56;;;;;;;8.38;6.57;;;4.00;65.40;;;;;;5052283;28;20404;-73
2022/01/24 00:29:24;;;;;;;7.95;5.65;;;3.90;68.30;;;;;;5046585;28;20404;-74
2022/01/24 00:31:51;;;;;;;7.82;5.68;;;3.90;68.30;;;;;;5048756;28;20393;-75
2022/01/24 00:34:17;;;;;;;9.65;6.28;;;3.80;68.50;;;;;;5055377;28;20385;-74
2022/01/24 00:36:47;;;;;;;8.00;5.78;;;3.80;68.70;;;;;;5072018;28;20414;-74
2022/01/24 00:39:13;;;;;;;8.35;5.05;;;3.90;68.80;;;;;;5046778;28;20500;-75
2022/01/24 00:42:30;;;;;;;9.80;6.10;;;4.00;68.10;;;;;;5053130;28;20393;-75
2022/01/24 00:44:46;;;;;;;7.17;4.83;;;4.10;68.90;;;;;;5047006;28;20393;-74
2022/01/24 00:47:46;;;;;;;7.30;4.80;;;4.40;63.20;;;;;;5052555;28;20385;-74
2022/01/24 00:55:37;;;;;;;7.60;5.80;;;4.80;59.40;;;;;;5032629;28;20406;-73
2022/01/24 00:58:03;;;;;;;6.43;4.22;;;4.80;58.90;;;;;;5014585;28;20434;-74
2022/01/24 01:00:28;;;;;;;6.00;4.90;;;4.90;57.60;;;;;;5032383;28;20825;-72
2022/01/24 01:02:54;;;;;;;5.50;4.93;;;5.20;56.50;;;;;;5049082;28;20394;-73
2022/01/24 01:18:28;;;;;;;5.50;4.07;;;5.40;52.30;;;;;;5070891;28;20406;-74
2022/01/24 01:21:09;;;;;;;6.60;5.30;;;5.50;51.00;;;;;;5068795;28;20460;-73
2022/01/24 01:23:38;;;;;;;4.70;4.30;;;5.60;51.50;;;;;;5055731;28;20373;-73
2022/01/24 01:26:10;;;;;;;4.50;3.85;;;5.50;51.70;;;;;;5035759;28;20377;-74
2022/01/24 01:28:37;;;;;;;4.25;3.85;;;5.70;50.60;;;;;;5054025;28;20373;-74
2022/01/24 01:31:09;;;;;;;6.38;4.38;;;5.70;49.50;;;;;;5035749;28;20747;-74
2022/01/24 01:36:14;;;;;;;7.05;4.88;;;5.70;50.10;;;;;;5052927;28;20433;-73
2022/01/24 01:52:40;;;;;;;5.18;4.40;;;5.80;49.70;;;;;;5060068;28;20483;-74
2022/01/24 01:57:32;;;;;;;5.20;4.70;;;5.90;48.30;;;;;;5052257;28;20412;-73
2022/01/24 01:59:57;;;;;;;7.10;4.27;;;5.90;48.40;;;;;;5057757;28;20397;-73
2022/01/24 02:02:23;;;;;;;4.90;3.83;;;6.00;46.90;;;;;;5043086;28;20387;-73
2022/01/24 02:04:48;;;;;;;7.50;5.20;;;6.00;47.00;;;;;;5039767;28;20445;-73
2022/01/24 02:07:15;;;;;;;6.57;5.33;;;6.00;47.30;;;;;;5049432;28;20459;-73
2022/01/24 02:09:43;;;;;;;4.90;4.40;;;6.00;48.00;;;;;;5051332;28;20863;-73
2022/01/24 02:12:10;;;;;;;5.97;4.28;;;6.10;49.20;;;;;;5053141;28;20401;-73
2022/01/24 02:14:41;;;;;;;4.13;3.72;;;6.20;46.30;;;;;;5058892;28;20419;-73
2022/01/24 02:17:14;;;;;;;4.70;4.30;;;6.20;45.80;;;;;;5070303;28;20419;-73
2022/01/24 02:20:05;;;;;;;4.47;4.07;;;6.30;45.90;;;;;;5049921;28;20385;-73
2022/01/24 02:22:48;;;;;;;4.53;3.95;;;6.30;45.10;;;;;;5056161;28;20397;-74
2022/01/24 02:25:26;;;;;;;5.43;4.20;;;6.30;46.20;;;;;;5056568;28;20393;-74
2022/01/24 02:28:02;;;;;;;5.45;4.60;;;6.10;47.50;;;;;;5062912;28;20391;-73
2022/01/24 02:30:57;;;;;;;5.22;4.10;;;6.10;48.00;;;;;;5052620;28;20828;-74
2022/01/24 02:33:22;;;;;;;4.38;3.97;;;6.10;48.90;;;;;;5061620;28;20543;-74
2022/01/24 02:35:48;;;;;;;6.90;4.20;;;6.20;45.90;;;;;;5051082;28;20409;-74
2022/01/24 02:49:12;;;;;;;4.00;3.70;;;6.10;47.90;;;;;;5045577;28;20416;-73
2022/01/24 02:51:46;;;;;;;4.10;3.72;;;6.10;47.20;;;;;;5050929;28;20397;-74
2022/01/24 02:54:24;;;;;;;4.10;3.70;;;6.10;47.80;;;;;;5065576;28;20393;-74
2022/01/24 02:56:50;;;;;;;4.30;3.90;;;6.20;46.60;;;;;;5065677;28;20455;-74
2022/01/24 02:59:16;;;;;;;3.85;3.30;;;6.20;47.70;;;;;;5056655;28;20389;-74
2022/01/24 03:01:44;;;;;;;3.95;3.50;;;6.10;48.40;;;;;;5041523;28;20428;-74
2022/01/24 03:04:10;;;;;;;3.53;3.17;;;6.10;48.90;;;;;;5030411;28;20903;-74
2022/01/24 03:06:36;;;;;;;3.90;3.50;;;6.20;48.20;;;;;;5031474;28;20395;-74
2022/01/24 03:09:07;;;;;;;3.80;3.40;;;6.30;47.30;;;;;;5047500;28;20568;-74
2022/01/24 03:14:32;;;;;;;4.20;3.60;;;6.20;47.70;;;;;;5059637;28;20415;-74
2022/01/24 03:17:03;;;;;;;6.35;3.25;;;6.20;47.60;;;;;;5033627;28;20422;-74
2022/01/24 03:19:29;;;;;;;3.38;3.17;;;6.30;47.50;;;;;;5032185;28;20485;-74
2022/01/24 03:21:54;;;;;;;3.87;3.47;;;6.20;48.00;;;;;;5051205;28;20984;-74
2022/01/24 03:24:20;;;;;;;5.73;3.00;;;6.20;48.30;;;;;;5055177;28;20485;-74
2022/01/24 03:26:47;;;;;;;4.37;3.57;;;6.20;48.30;;;;;;5050070;28;20389;-74
2022/01/24 03:29:13;;;;;;;7.35;3.05;;;6.20;48.20;;;;;;5050477;28;20400;-74
2022/01/24 03:31:40;;;;;;;3.78;2.92;;;6.20;49.30;;;;;;5049912;28;20475;-74
2022/01/24 03:34:06;;;;;;;8.50;3.60;;;6.20;48.80;;;;;;5050196;28;20389;-73
2022/01/24 03:36:32;;;;;;;3.17;2.75;;;6.20;48.80;;;;;;5050163;28;20405;-73
2022/01/24 03:38:57;;;;;;;4.93;3.20;;;6.20;49.00;;;;;;5058320;28;20731;-72
2022/01/24 03:41:23;;;;;;;4.10;3.50;;;6.20;49.00;;;;;;5050271;28;20735;-73
2022/01/24 03:43:49;;;;;;;5.60;2.90;;;6.20;49.70;;;;;;5032368;28;20955;-73
2022/01/24 03:48:47;;;;;;;3.90;3.20;;;6.20;49.60;;;;;;5063594;28;20513;-73
2022/01/24 03:51:13;;;;;;;4.47;3.50;;;6.00;50.10;;;;;;5051367;28;20419;-73
2022/01/24 03:53:39;;;;;;;5.07;4.57;;;6.10;50.90;;;;;;5049312;28;20392;-73
2022/01/24 03:56:05;;;;;;;3.38;2.70;;;6.10;50.90;;;;;;5058095;28;20428;-74
2022/01/24 03:58:31;;;;;;;4.97;3.10;;;6.20;48.40;;;;;;5050454;28;20381;-72
2022/01/24 04:00:58;;;;;;;6.15;3.40;;;6.20;48.80;;;;;;5048475;28;20404;-73
2022/01/24 04:03:23;;;;;;;4.30;3.50;;;6.20;49.90;;;;;;5031423;28;20423;-74
2022/01/24 04:05:49;;;;;;;3.15;2.85;;;6.20;49.40;;;;;;5034850;28;20418;-73
2022/01/24 04:08:15;;;;;;;5.03;4.00;;;6.20;49.20;;;;;;5045642;28;20476;-73
2022/01/24 04:10:43;;;;;;;6.40;4.00;;;6.20;49.40;;;;;;5053738;28;20465;-73
2022/01/24 04:13:23;;;;;;;5.85;4.38;;;6.20;51.00;;;;;;5038320;28;20455;-75
2022/01/24 04:24:06;;;;;;;5.72;3.10;;;6.30;50.00;;;;;;5064263;28;20492;-72
2022/01/24 04:26:33;;;;;;;2.97;2.75;;;6.30;49.30;;;;;;5073341;28;20422;-74
2022/01/24 04:28:59;;;;;;;4.50;2.90;;;6.40;49.50;;;;;;5053548;28;20946;-74
2022/01/24 04:31:25;;;;;;;3.38;3.08;;;6.40;47.80;;;;;;5052733;28;20431;-72
2022/01/24 04:33:51;;;;;;;4.13;2.60;;;6.30;49.00;;;;;;5053574;28;20389;-74
2022/01/24 04:36:18;;;;;;;2.70;2.50;;;6.30;49.20;;;;;;5043180;28;20387;-73
2022/01/24 04:38:44;;;;;;;4.40;2.78;;;6.40;50.40;;;;;;5068617;28;20896;-73
2022/01/24 04:41:23;;;;;;;4.05;2.88;;;6.40;49.30;;;;;;5052755;28;20461;-73
2022/01/24 04:56:52;;;;;;;3.53;3.23;;;6.30;49.10;;;;;;5056345;28;20441;-74
2022/01/24 04:59:17;;;;;;;7.10;4.23;;;6.30;49.50;;;;;;5033456;28;20445;-74
2022/01/24 05:01:43;;;;;;;4.33;3.30;;;6.20;50.00;;;;;;5033088;28;20386;-75
2022/01/24 05:04:08;;;;;;;3.20;2.80;;;6.30;50.80;;;;;;5042206;28;20388;-74
2022/01/24 05:06:34;;;;;;;3.80;2.70;;;6.30;51.40;;;;;;5072201;28;20756;-74
2022/01/24 05:09:00;;;;;;;2.80;2.50;;;6.40;49.90;;;;;;5066415;28;20384;-73
2022/01/24 05:11:38;;;;;;;5.78;3.10;;;6.40;51.00;;;;;;5054643;28;20400;-73
2022/01/24 05:24:45;;;;;;;4.43;2.88;;;6.20;52.70;;;;;;5063359;28;20435;-74
2022/01/24 05:27:11;;;;;;;5.50;2.83;;;6.20;53.70;;;;;;5063311;28;20874;-74
2022/01/24 05:29:37;;;;;;;3.50;2.97;;;6.10;53.40;;;;;;5055438;28;20405;-74
2022/01/24 05:32:05;;;;;;;11.02;3.28;;;6.10;54.20;;;;;;5034180;28;20392;-73
2022/01/24 05:34:31;;;;;;;6.60;2.50;;;6.20;52.80;;;;;;5034231;28;20794;-73
2022/01/24 05:36:57;;;;;;;4.10;2.97;;;6.30;50.90;;;;;;5048759;28;20411;-73
2022/01/24 05:39:22;;;;;;;5.90;3.50;;;6.30;50.00;;;;;;5034100;28;20395;-73
2022/01/24 05:41:48;;;;;;;5.40;2.97;;;6.30;48.80;;;;;;5051979;28;20408;-73
2022/01/24 05:44:14;;;;;;;5.95;2.90;;;6.30;49.10;;;;;;5051866;28;20377;-73
2022/01/24 05:46:42;;;;;;;3.97;2.67;;;6.30;48.40;;;;;;5051942;28;20420;-74
2022/01/24 05:49:08;;;;;;;3.30;3.00;;;6.20;49.90;;;;;;5052733;28;20427;-73
2022/01/24 05:51:34;;;;;;;3.35;3.10;;;6.20;50.00;;;;;;5051108;28;20389;-73
2022/01/24 05:54:00;;;;;;;7.10;3.58;;;6.40;49.90;;;;;;5053323;28;20390;-73
2022/01/24 05:56:26;;;;;;;3.80;3.00;;;6.40;48.80;;;;;;5033426;28;20402;-73
2022/01/24 05:58:52;;;;;;;3.25;2.95;;;6.30;49.30;;;;;;5031944;28;20756;-73
2022/01/24 06:01:17;;;;;;;5.47;3.30;;;6.40;48.60;;;;;;5044119;28;20392;-74
2022/01/24 06:03:43;;;;;;;4.10;2.50;;;6.30;49.80;;;;;;5072183;28;20478;-73
2022/01/24 06:06:09;;;;;;;11.80;3.20;;;6.30;49.10;;;;;;5063109;28;20389;-74
2022/01/24 06:08:35;;;;;;;3.95;3.53;;;6.20;49.50;;;;;;5034005;28;20432;-74
2022/01/24 06:11:06;;;;;;;5.05;3.90;;;6.60;49.70;;;;;;5049750;28;20996;-74
2022/01/24 06:13:32;;;;;;;3.03;2.83;;;6.30;50.30;;;;;;5055675;28;20808;-74
2022/01/24 06:15:58;;;;;;;3.83;3.00;;;6.40;50.10;;;;;;5053306;28;20392;-74
2022/01/24 06:18:30;;;;;;;4.40;3.10;;;6.30;49.70;;;;;;5071606;28;20457;-73
2022/01/24 06:20:55;;;;;;;7.45;3.58;;;6.40;48.00;;;;;;5034758;28;20499;-73
2022/01/24 06:23:27;;;;;;;4.20;3.37;;;6.30;49.00;;;;;;5050141;28;21327;-74
2022/01/24 06:25:53;;;;;;;4.30;3.55;;;6.30;47.30;;;;;;5039357;28;20476;-75
2022/01/24 06:28:22;;;;;;;6.15;3.55;;;7.50;48.60;;;;;;5051311;28;20823;-74
2022/01/24 06:30:48;;;;;;;6.53;3.60;;;5.90;49.20;;;;;;5051094;28;20393;-73
2022/01/24 06:33:28;;;;;;;3.53;3.00;;;6.20;49.00;;;;;;5033630;28;20436;-74
2022/01/24 06:35:54;;;;;;;6.57;3.90;;;6.10;49.40;;;;;;5057232;28;20427;-73
2022/01/24 06:38:19;;;;;;;5.45;4.22;;;6.10;50.70;;;;;;5052827;28;20830;-76
2022/01/24 06:40:45;;;;;;;6.60;3.10;;;6.10;50.60;;;;;;5056752;28;20720;-74
2022/01/24 06:43:10;;;;;;;3.50;3.20;;;6.10;48.90;;;;;;5071260;28;20821;-75
2022/01/24 06:45:36;;;;;;;6.35;3.92;;;6.10;49.00;;;;;;5054070;28;20788;-76
2022/01/24 06:48:01;;;;;;;5.18;4.25;;;6.10;49.60;;;;;;5067836;28;20387;-76
2022/01/24 06:50:27;;;;;;;4.50;3.50;;;6.20;49.30;;;;;;5055457;28;20752;-76
2022/01/24 06:52:53;;;;;;;5.22;4.25;;;6.20;50.40;;;;;;5054277;28;20404;-76
2022/01/24 06:55:18;;;;;;;5.20;3.50;;;6.30;49.30;;;;;;5060157;28;20388;-75
2022/01/24 06:57:44;;;;;;;5.20;3.27;;;6.40;48.30;;;;;;5053097;28;20479;-74
2022/01/24 07:00:10;;;;;;;4.53;3.40;;;6.40;48.90;;;;;;5053981;28;20399;-74
2022/01/24 07:02:36;;;;;;;8.57;4.40;;;6.30;48.10;;;;;;5066361;28;20762;-75
2022/01/24 07:05:02;;;;;;;4.80;3.70;;;6.20;48.70;;;;;;5032522;28;20393;-74
2022/01/24 07:07:30;;;;;;;6.87;3.80;;;6.20;49.20;;;;;;5050963;28;20385;-73
2022/01/24 07:09:56;;;;;;;15.93;4.67;;;6.10;49.80;;;;;;5051646;28;20397;-74
2022/01/24 07:12:24;;;;;;;5.68;4.50;;;6.20;50.30;;;;;;5041396;28;20491;-74
2022/01/24 07:14:50;;;;;;;5.78;4.10;;;6.10;50.40;;;;;;5070956;28;20799;-75
2022/01/24 07:19:51;;;;;;;9.05;4.13;;;6.10;50.40;;;;;;5031907;28;20440;-75
2022/01/24 07:22:16;;;;;;;6.27;4.07;;;6.10;50.80;;;;;;5051584;28;20855;-79
2022/01/24 07:24:42;;;;;;;6.77;4.40;;;6.00;51.30;;;;;;5054393;28;20781;-74
2022/01/24 07:27:08;;;;;;;4.90;3.70;;;6.00;52.80;;;;;;5050951;28;20768;-74
2022/01/24 07:29:34;;;;;;;11.35;4.10;;;6.10;51.80;;;;;;5030209;28;20848;-75
2022/01/24 07:32:03;;;;;;;4.68;3.40;;;6.00;51.40;;;;;;5052499;28;20393;-73
2022/01/24 07:34:32;;;;;;;3.72;3.40;;;5.90;52.90;;;;;;5072909;28;20415;-74
2022/01/24 07:37:02;;;;;;;5.95;4.10;;;6.10;50.20;;;;;;5063898;28;20411;-74
2022/01/24 07:39:28;;;;;;;10.20;4.00;;;6.00;52.20;;;;;;5036667;28;20403;-75
2022/01/24 07:42:02;;;;;;;9.70;4.10;;;5.90;52.20;;;;;;5054883;28;20412;-75
2022/01/24 07:44:27;;;;;;;13.13;4.45;;;5.90;52.50;;;;;;5051104;28;20778;-75
2022/01/24 07:46:56;;;;;;;7.97;4.70;;;5.80;53.50;;;;;;5047111;28;20846;-75
2022/01/24 07:49:22;;;;;;;7.40;4.00;;;5.90;54.30;;;;;;5052543;28;20405;-75
2022/01/24 07:51:48;;;;;;;5.07;3.60;;;6.00;53.40;;;;;;5048318;28;20388;-75
2022/01/24 07:54:13;;;;;;;4.00;3.60;;;6.00;52.40;;;;;;5061265;28;20418;-74
2022/01/24 07:56:39;;;;;;;4.50;3.90;;;6.20;52.40;;;;;;5051030;28;20401;-75
2022/01/24 07:59:05;;;;;;;6.05;3.83;;;6.30;50.90;;;;;;5054147;28;20460;-74
2022/01/24 08:01:31;;;;;;;6.85;4.03;;;6.30;50.00;;;;;;5054177;28;20385;-74
2022/01/24 08:03:57;;;;;;;7.57;4.57;;;6.30;50.10;;;;;;5053904;28;20393;-73
2022/01/24 08:06:22;;;;;;;5.97;4.60;;;6.30;51.50;;;;;;5054036;28;20709;-75
2022/01/24 08:08:48;;;;;;;6.70;3.30;;;6.30;51.20;;;;;;5071787;28;20390;-73
2022/01/24 08:11:16;;;;;;;4.18;3.78;;;6.40;49.80;;;;;;5068461;28;20391;-72
2022/01/24 08:13:42;;;;;;;8.13;4.33;;;6.50;49.30;;;;;;5059468;28;20398;-73
2022/01/24 08:16:07;;;;;;;7.72;4.53;;;6.40;50.00;;;;;;5037676;28;20449;-74
2022/01/24 08:18:33;;;;;;;8.07;4.45;;;6.70;49.30;;;;;;5026915;28;20427;-74
2022/01/24 08:20:58;;;;;;;8.48;4.10;;;6.70;48.30;;;;;;5040468;28;20393;-74
2022/01/24 08:23:24;;;;;;;7.03;4.53;;;6.70;48.70;;;;;;5049271;28;20871;-74
2022/01/24 08:25:50;;;;;;;10.15;5.70;;;6.70;47.70;;;;;;5051911;28;20401;-73
2022/01/24 08:28:15;;;;;;;5.78;3.88;;;6.60;48.10;;;;;;5059820;28;20399;-74
2022/01/24 08:30:45;;;;;;;5.90;4.32;;;6.70;47.60;;;;;;5059937;28;20405;-75
2022/01/24 08:33:10;;;;;;;9.18;5.35;;;6.80;46.50;;;;;;5023662;28;20570;-74
2022/01/24 08:35:36;;;;;;;17.25;9.95;;;6.80;46.70;;;;;;5038603;28;20493;-73
2022/01/24 08:38:04;;;;;;;12.20;7.03;;;6.80;46.10;;;;;;5035997;28;20514;-74
2022/01/24 08:40:31;;;;;;;6.30;4.00;;;6.80;46.40;;;;;;5052259;28;20381;-73
2022/01/24 08:43:04;;;;;;;8.87;5.70;;;6.80;48.30;;;;;;5037204;28;20406;-73
2022/01/24 08:48:13;;;;;;;6.50;4.43;;;6.80;48.60;;;;;;5042696;28;20415;-73
2022/01/24 08:50:41;;;;;;;7.70;4.83;;;6.80;46.40;;;;;;5046313;28;20965;-73
2022/01/24 08:53:08;;;;;;;6.13;4.30;;;6.90;46.90;;;;;;5049562;28;20401;-74
2022/01/24 08:55:35;;;;;;;4.88;3.92;;;6.90;46.00;;;;;;5045857;28;20464;-72
2022/01/24 08:58:03;;;;;;;8.52;5.55;;;7.00;46.00;;;;;;5051572;28;20922;-73
2022/01/24 09:00:29;;;;;;;11.40;5.10;;;7.00;45.80;;;;;;5058248;28;20869;-74
2022/01/24 09:02:55;;;;;;;14.30;5.25;;;7.10;44.70;;;;;;5059232;28;20479;-74
2022/01/24 09:05:22;;;;;;;10.93;4.50;;;7.20;43.90;;;;;;5068220;28;20433;-73
2022/01/24 09:07:48;;;;;;;7.05;4.50;;;7.30;43.20;;;;;;5054117;28;20399;-75
2022/01/24 09:10:14;;;;;;;4.13;3.70;;;7.30;42.30;;;;;;5052870;28;20389;-74
2022/01/24 09:12:41;;;;;;;4.63;4.22;;;7.30;42.10;;;;;;5057064;28;20397;-75
2022/01/24 09:15:07;;;;;;;6.13;4.40;;;7.30;41.80;;;;;;5058453;28;20385;-76
2022/01/24 09:17:32;;;;;;;7.00;4.65;;;7.40;42.20;;;;;;5046062;28;20416;-74
2022/01/24 09:19:59;;;;;;;6.50;4.70;;;7.40;43.10;;;;;;5069460;28;20406;-75
2022/01/24 09:22:25;;;;;;;7.97;5.10;;;7.40;43.30;;;;;;5092856;28;20536;-72
2022/01/24 09:24:51;;;;;;;5.00;4.50;;;7.50;42.80;;;;;;5070951;28;20404;-74
2022/01/24 09:27:16;;;;;;;9.80;5.20;;;7.60;40.90;;;;;;5053091;28;20385;-75
2022/01/24 09:29:42;;;;;;;8.13;5.05;;;7.60;41.60;;;;;;5056831;28;20399;-74
2022/01/24 09:32:07;;;;;;;5.43;4.30;;;7.70;39.90;;;;;;5046440;28;20404;-75
2022/01/24 09:34:33;;;;;;;6.10;4.40;;;7.70;40.50;;;;;;5050803;28;20884;-76
2022/01/24 09:36:59;;;;;;;9.00;4.13;;;7.70;41.70;;;;;;5053672;28;20432;-73
2022/01/24 09:39:25;;;;;;;5.10;4.10;;;7.70;41.00;;;;;;5049832;28;20401;-74
2022/01/24 09:41:52;;;;;;;6.53;5.10;;;7.80;39.50;;;;;;5050725;28;20398;-76
2022/01/24 09:44:17;;;;;;;5.00;4.00;;;7.80;40.30;;;;;;5046721;28;20472;-74
2022/01/24 09:46:46;;;;;;;7.13;4.70;;;8.00;37.40;;;;;;5055144;28;20432;-75
2022/01/24 09:49:12;;;;;;;7.78;4.75;;;7.90;38.20;;;;;;5037799;28;20465;-74
2022/01/24 09:51:38;;;;;;;7.80;5.30;;;7.90;37.90;;;;;;5060089;28;20389;-74
2022/01/24 09:54:05;;;;;;;8.77;4.13;;;8.00;38.20;;;;;;5044856;28;20496;-75
2022/01/24 09:56:33;;;;;;;6.65;4.60;;;8.00;36.20;;;;;;5055152;28;20397;-74
2022/01/24 09:59:00;;;;;;;8.48;4.70;;;8.00;36.70;;;;;;5052011;28;20393;-75
2022/01/24 10:01:26;;;;;;;4.55;4.15;;;8.10;36.40;;;;;;5051174;28;20393;-74
2022/01/24 10:04:15;;;;;;;4.60;4.10;;;8.10;36.40;;;;;;5036653;28;20448;-74
2022/01/24 10:07:00;;;;;;;7.05;4.47;;;8.20;35.00;;;;;;5051343;28;20433;-75
2022/01/24 10:10:04;;;;;;;6.47;4.43;;;8.10;35.10;;;;;;5071735;28;20376;-76
2022/01/24 10:16:24;;;;;;;5.93;4.97;;;8.20;35.20;;;;;;4991146;28;20895;-75
2022/01/24 10:18:08;;;;;;;7.60;4.53;;;8.10;34.60;;;;;;5026392;28;20426;-74
2022/01/24 10:20:37;;;;;;;6.50;4.70;;;8.10;34.90;;;;;;5053080;28;20484;-75
2022/01/24 10:23:08;;;;;;;7.00;4.75;;;8.10;35.50;;;;;;5060800;28;20395;-74
2022/01/24 10:26:00;;;;;;;7.38;5.40;;;8.10;35.00;;;;;;5013862;28;20789;-74
2022/01/24 10:28:33;;;;;;;6.60;5.10;;;8.10;35.40;;;;;;5031651;28;20397;-74
2022/01/24 10:31:18;;;;;;;6.22;4.40;;;8.20;35.50;;;;;;5031351;28;20383;-75
2022/01/24 10:34:22;;;;;;;6.47;4.80;;;8.40;34.60;;;;;;5061825;28;20396;-76
2022/01/24 10:36:55;;;;;;;6.18;5.20;;;8.40;33.90;;;;;;5063459;28;20406;-75
2022/01/24 10:42:25;;;;;;;8.63;6.47;;;8.50;33.70;;;;;;5031355;28;20394;-75
2022/01/24 10:44:51;;;;;;;8.68;5.20;;;8.50;33.60;;;;;;5036546;28;20400;-75
2022/01/24 10:47:22;;;;;;;8.23;5.40;;;8.40;33.20;;;;;;5033162;28;20418;-77
2022/01/24 10:49:47;;;;;;;8.20;5.40;;;8.30;33.90;;;;;;5032880;28;20387;-75
2022/01/24 10:52:28;;;;;;;6.07;5.17;;;8.20;33.60;;;;;;5041521;28;20455;-74
2022/01/24 10:55:10;;;;;;;7.43;5.70;;;8.30;33.70;;;;;;5050012;28;20805;-75
2022/01/24 10:57:37;;;;;;;7.07;5.78;;;8.30;34.20;;;;;;5041216;28;20712;-75
2022/01/24 11:00:14;;;;;;;7.10;5.40;;;8.40;33.50;;;;;;5020242;28;20395;-76
2022/01/24 11:02:42;;;;;;;7.90;5.40;;;8.50;34.50;;;;;;5031707;28;20436;-76
2022/01/24 11:05:12;;;;;;;7.60;5.30;;;8.70;33.10;;;;;;5013774;28;20809;-74
2022/01/24 11:07:56;;;;;;;5.65;5.05;;;8.60;32.40;;;;;;5043676;28;20478;-74
2022/01/24 11:10:24;;;;;;;9.65;5.82;;;8.60;33.40;;;;;;5041955;28;20419;-76
2022/01/24 11:12:51;;;;;;;9.60;5.90;;;8.50;33.60;;;;;;5046105;28;20393;-75
2022/01/24 11:15:17;;;;;;;5.85;5.25;;;8.50;33.60;;;;;;5054844;28;20397;-75
2022/01/24 11:17:44;;;;;;;13.32;6.00;;;8.40;32.90;;;;;;5054836;28;20712;-76
2022/01/24 11:20:14;;;;;;;7.80;5.30;;;8.40;34.10;;;;;;5055156;28;20377;-74
2022/01/24 11:22:44;;;;;;;6.35;5.45;;;8.50;33.80;;;;;;5058771;28;20393;-75
2022/01/24 11:25:11;;;;;;;7.18;5.40;;;8.60;33.30;;;;;;5070723;28;20736;-76
2022/01/24 11:27:44;;;;;;;6.30;5.23;;;8.60;33.50;;;;;;5063097;28;20404;-77
2022/01/24 11:30:21;;;;;;;7.27;6.07;;;8.60;32.90;;;;;;5053521;28;20565;-75
2022/01/24 11:33:21;;;;;;;8.38;5.78;;;8.40;33.30;;;;;;5043968;28;20405;-76
2022/01/24 11:35:53;;;;;;;9.68;6.00;;;8.20;33.60;;;;;;5023579;28;20463;-75
2022/01/24 11:38:40;;;;;;;7.28;5.72;;;8.20;34.80;;;;;;5032742;28;20413;-75
2022/01/24 11:41:32;;;;;;;8.68;5.97;;;8.10;35.00;;;;;;5054477;28;20384;-75
2022/01/24 11:44:07;;;;;;;7.43;6.47;;;8.10;35.20;;;;;;5034377;28;20441;-75
2022/01/24 11:46:42;;;;;;;8.52;6.70;;;8.20;34.70;;;;;;5037378;28;20415;-76
2022/01/24 11:49:12;;;;;;;11.10;6.20;;;8.30;34.40;;;;;;5053197;28;20409;-76
2022/01/24 11:51:40;;;;;;;10.07;5.75;;;8.40;34.60;;;;;;5054490;28;20480;-75
2022/01/24 11:54:30;;;;;;;7.97;5.70;;;8.50;34.80;;;;;;5062182;28;20423;-75
2022/01/24 11:57:17;;;;;;;9.80;6.63;;;8.50;34.50;;;;;;5053873;28;20503;-74
2022/01/24 11:59:43;;;;;;;8.60;5.70;;;8.70;33.70;;;;;;5054076;28;20472;-76
2022/01/24 12:02:15;;;;;;;6.72;4.90;;;8.60;33.00;;;;;;5049601;28;20446;-75
2022/01/24 12:04:59;;;;;;;6.88;6.10;;;8.70;33.70;;;;;;5053762;28;20385;-74
2022/01/24 12:07:29;;;;;;;8.60;5.68;;;8.80;33.10;;;;;;5060708;28;20400;-75
2022/01/24 12:10:15;;;;;;;7.93;4.90;;;8.80;34.60;;;;;;5054252;28;20389;-75
2022/01/24 12:12:48;;;;;;;6.28;5.60;;;8.90;32.90;;;;;;5055079;28;20381;-75
2022/01/24 12:15:38;;;;;;;7.10;5.00;;;8.70;33.30;;;;;;5055558;28;20381;-75
2022/01/24 12:18:16;;;;;;;7.88;5.35;;;8.70;33.30;;;;;;5044459;28;20407;-76
2022/01/24 12:20:42;;;;;;;7.68;5.75;;;8.80;34.00;;;;;;5070786;28;20396;-76
2022/01/24 12:23:16;;;;;;;8.40;5.70;;;9.00;33.20;;;;;;5075894;28;20888;-75
2022/01/24 12:26:06;;;;;;;7.67;5.37;;;8.90;32.60;;;;;;5078567;28;20395;-75
2022/01/24 12:28:43;;;;;;;9.23;4.70;;;8.80;33.70;;;;;;5057335;28;20457;-75
2022/01/24 12:31:46;;;;;;;8.57;5.22;;;8.90;33.00;;;;;;5042403;28;20856;-75
2022/01/24 12:34:18;;;;;;;12.57;5.15;;;8.70;32.80;;;;;;5058264;28;20389;-74
2022/01/24 12:36:47;;;;;;;15.35;6.00;;;8.70;33.70;;;;;;5070192;28;20484;-75
2022/01/24 12:39:33;;;;;;;7.20;5.70;;;8.70;33.70;;;;;;5069449;28;20408;-74
2022/01/24 12:42:10;;;;;;;7.55;5.50;;;8.70;33.80;;;;;;5035083;28;20432;-75
2022/01/24 12:47:04;;;;;;;5.32;4.82;;;9.00;33.30;;;;;;5048236;28;20393;-76
2022/01/24 12:49:30;;;;;;;7.40;4.40;;;8.90;33.40;;;;;;5040981;28;20892;-75
2022/01/24 12:52:03;;;;;;;9.63;5.00;;;8.90;33.70;;;;;;5054415;28;20429;-76
2022/01/24 12:54:30;;;;;;;8.35;5.00;;;8.80;34.30;;;;;;5063796;28;20404;-74
2022/01/24 12:57:08;;;;;;;5.23;4.40;;;8.70;34.70;;;;;;5056410;28;20412;-75
2022/01/24 12:59:35;;;;;;;7.33;4.40;;;8.80;35.10;;;;;;5051632;28;20393;-75
2022/01/24 13:02:03;;;;;;;5.18;4.55;;;8.70;34.10;;;;;;5061027;28;20453;-75
2022/01/24 13:04:37;;;;;;;7.65;5.22;;;8.70;34.00;;;;;;5059260;28;20381;-74
2022/01/24 13:07:05;;;;;;;8.17;4.80;;;8.70;34.20;;;;;;5046691;28;20397;-75
2022/01/24 13:09:33;;;;;;;9.43;5.93;;;8.70;34.10;;;;;;5035618;28;20789;-74
2022/01/24 13:12:03;;;;;;;7.80;4.90;;;8.70;34.40;;;;;;5046742;28;20622;-75
2022/01/24 13:14:49;;;;;;;6.63;4.63;;;8.80;33.80;;;;;;5034205;28;20895;-75
2022/01/24 13:23:04;;;;;;;6.18;4.70;;;8.70;34.10;;;;;;5044209;28;20406;-73
2022/01/24 13:25:32;;;;;;;5.95;4.90;;;8.50;35.20;;;;;;5034914;28;20406;-75
2022/01/24 13:28:04;;;;;;;7.05;5.10;;;8.30;36.20;;;;;;5040585;28;20403;-74
2022/01/24 13:30:42;;;;;;;6.07;4.32;;;8.30;36.10;;;;;;5050689;28;20404;-74
2022/01/24 13:33:09;;;;;;;5.78;4.10;;;8.20;36.40;;;;;;5040579;28;20696;-75
2022/01/24 13:35:41;;;;;;;5.15;4.28;;;8.30;36.90;;;;;;5038111;28;20504;-76
2022/01/24 13:38:15;;;;;;;8.75;4.63;;;8.40;36.20;;;;;;5045339;28;20433;-75
2022/01/24 13:40:44;;;;;;;6.82;4.30;;;8.30;37.00;;;;;;5051304;28;20758;-74
2022/01/24 13:43:11;;;;;;;20.00;4.80;;;8.20;37.00;;;;;;5051420;28;20954;-76
2022/01/24 13:45:39;;;;;;;16.77;4.57;;;8.10;36.90;;;;;;5034283;28;20423;-75
2022/01/24 13:48:06;;;;;;;9.00;5.18;;;8.10;37.30;;;;;;5050014;28;20398;-75
2022/01/24 13:50:33;;;;;;;7.00;5.50;;;8.00;37.80;;;;;;5057403;28;20433;-73
2022/01/24 13:52:58;;;;;;;7.00;4.90;;;8.10;38.70;;;;;;5065125;28;20420;-75
2022/01/24 13:55:24;;;;;;;5.50;4.60;;;8.00;38.60;;;;;;5070362;28;20427;-75
2022/01/24 13:57:52;;;;;;;5.88;4.38;;;8.00;37.80;;;;;;5050277;28;20401;-75
2022/01/24 14:00:25;;;;;;;11.18;5.32;;;7.90;37.70;;;;;;5038599;28;20445;-76
2022/01/24 14:03:09;;;;;;;15.80;7.67;;;7.90;38.40;;;;;;5072335;28;20872;-76
2022/01/24 14:05:34;;;;;;;36.88;19.05;;;7.90;38.60;;;;;;5054118;28;20442;-75
2022/01/24 14:08:15;;;;;;;14.95;5.97;;;7.90;39.20;;;;;;5050952;28;20393;-76
2022/01/24 14:10:41;;;;;;;11.15;5.32;;;7.90;37.30;;;;;;5054040;28;20400;-75
2022/01/24 14:13:08;;;;;;;12.07;6.00;;;7.90;38.30;;;;;;5037560;28;20898;-75
2022/01/24 14:16:01;;;;;;;11.90;4.75;;;7.90;38.00;;;;;;5043473;28;20866;-75
2022/01/24 14:18:33;;;;;;;7.35;5.50;;;7.90;37.90;;;;;;5036102;28;20405;-75
2022/01/24 14:21:10;;;;;;;6.63;4.20;;;7.80;37.80;;;;;;5025971;28;20385;-74
2022/01/24 14:23:37;;;;;;;15.70;6.00;;;7.80;38.10;;;;;;5049982;28;20452;-73
2022/01/24 14:26:17;;;;;;;4.70;4.20;;;7.90;38.70;;;;;;5048154;28;20414;-74
2022/01/24 14:28:43;;;;;;;5.00;4.30;;;7.90;39.10;;;;;;5063733;28;20483;-78
2022/01/24 14:31:12;;;;;;;6.27;4.43;;;7.90;39.30;;;;;;5039262;28;20406;-75
2022/01/24 14:33:40;;;;;;;11.48;4.60;;;7.90;39.00;;;;;;5029782;28;20413;-74
2022/01/24 14:36:13;;;;;;;7.32;4.53;;;7.90;39.20;;;;;;5055388;28;20826;-76
2022/01/24 14:38:43;;;;;;;7.50;4.90;;;7.70;38.00;;;;;;5048373;28;20408;-73
2022/01/24 14:41:15;;;;;;;6.00;4.57;;;7.60;38.60;;;;;;5054821;28;20616;-75
2022/01/24 14:46:33;;;;;;;9.75;5.00;;;7.60;39.00;;;;;;5056715;28;20512;-75
2022/01/24 14:49:22;;;;;;;10.73;4.35;;;7.60;39.20;;;;;;5054316;28;20397;-77
2022/01/24 14:51:48;;;;;;;11.90;5.57;;;7.60;39.70;;;;;;5050750;28;20395;-76
2022/01/24 14:54:19;;;;;;;6.73;4.80;;;7.60;40.40;;;;;;5036589;28;20474;-76
2022/01/24 14:56:49;;;;;;;8.52;5.28;;;7.60;40.20;;;;;;5024267;28;20393;-74
2022/01/24 14:59:15;;;;;;;7.20;4.10;;;7.50;40.80;;;;;;5047850;28;20894;-75
2022/01/24 15:01:41;;;;;;;7.47;4.63;;;7.50;39.80;;;;;;5050714;28;20425;-76
2022/01/24 15:04:07;;;;;;;13.10;7.30;;;7.40;41.40;;;;;;5038338;28;20739;-75
2022/01/24 15:06:34;;;;;;;7.65;5.20;;;7.40;41.60;;;;;;5048450;28;20389;-75
2022/01/24 15:09:04;;;;;;;5.82;4.55;;;7.40;40.70;;;;;;5034502;28;20926;-75
2022/01/24 15:11:31;;;;;;;7.05;4.70;;;7.50;39.80;;;;;;5045561;28;20469;-76